Thea, Argentina
Current Conditions -  °F | °C
As of 5:00 PM on Tuesday 25 Nov 2014 (Local Time) from SACO Reporting Station
Clear Clear  
Wind Chill: 28°   Ceiling: Unl
Heat Index: 28°   Visibility: 6mi
Dew Point:   Wind: 3mph
Humidity: 23%   Direction: 110°ESE
Pressure: 29.88"   Gusts: NA
Location:  31.05°S, 64.52°W
Report Text: SACO 252000Z 11003KT CAVOK 28/05 Q1012
Loading
Personal Weather Stations






























Interactive Weather Map New forecast layout! Learn more

10-Day Weather Forecast

Advertisements
Track Severe Weather on mobile